createdAt,value
2023-10-21T00:00:26.142Z,16.43
2023-10-21T00:03:14.887Z,16.40
2023-10-21T00:05:44.133Z,16.44
2023-10-21T00:08:12.815Z,16.40
2023-10-21T00:10:41.717Z,16.34
2023-10-21T00:13:10.235Z,16.29
2023-10-21T00:15:38.946Z,16.17
2023-10-21T00:18:07.605Z,16.15
2023-10-21T00:20:36.239Z,16.15
2023-10-21T00:23:04.824Z,16.14
2023-10-21T00:25:33.337Z,16.12
2023-10-21T00:28:02.022Z,16.09
2023-10-21T00:30:30.729Z,16.06
2023-10-21T00:32:59.487Z,15.96
2023-10-21T00:35:28.230Z,15.91
2023-10-21T00:37:57.052Z,15.93
2023-10-21T00:40:25.740Z,15.88
2023-10-21T00:42:55.820Z,15.88
2023-10-21T00:45:24.850Z,15.87
2023-10-21T00:47:53.770Z,15.83
2023-10-21T00:50:22.688Z,15.82
2023-10-21T00:52:51.888Z,15.79
2023-10-21T00:55:20.612Z,15.72
2023-10-21T00:57:50.056Z,15.71
2023-10-21T01:00:18.940Z,15.64
2023-10-21T01:02:48.680Z,15.66
2023-10-21T01:05:17.473Z,15.62
2023-10-21T01:07:46.150Z,15.62
2023-10-21T01:10:14.732Z,15.58
2023-10-21T01:12:43.493Z,15.53
2023-10-21T01:15:13.202Z,15.50
2023-10-21T01:17:42.253Z,15.51
2023-10-21T01:20:11.929Z,15.40
2023-10-21T01:22:40.872Z,15.37
2023-10-21T01:25:09.975Z,15.30
2023-10-21T01:27:39.018Z,15.31
2023-10-21T01:30:08.313Z,15.27
2023-10-21T01:32:37.286Z,15.20
2023-10-21T01:35:07.427Z,15.08
2023-10-21T01:37:36.101Z,15.02
2023-10-21T01:40:05.697Z,14.99
2023-10-21T01:42:35.596Z,14.95
2023-10-21T01:45:05.553Z,14.88
2023-10-21T01:47:34.298Z,14.82
2023-10-21T01:50:08.748Z,14.79
2023-10-21T01:52:38.196Z,14.77
2023-10-21T01:55:10.210Z,14.68
2023-10-21T01:57:38.955Z,14.60
2023-10-21T02:00:12.017Z,14.63
2023-10-21T02:02:44.119Z,14.61
2023-10-21T02:05:13.497Z,14.61
2023-10-21T02:07:42.050Z,14.62
2023-10-21T02:10:10.860Z,14.60
2023-10-21T02:12:39.597Z,14.59
2023-10-21T02:15:19.167Z,14.60
2023-10-21T02:17:47.984Z,14.63
2023-10-21T02:20:16.886Z,14.64
2023-10-21T02:22:47.729Z,14.65
2023-10-21T02:25:18.125Z,14.67
2023-10-21T02:27:47.117Z,14.63
2023-10-21T02:30:18.253Z,14.59
2023-10-21T02:32:48.778Z,14.57
2023-10-21T02:35:18.164Z,14.58
2023-10-21T02:37:47.383Z,14.59
2023-10-21T02:40:19.356Z,14.52
2023-10-21T02:42:48.858Z,14.39
2023-10-21T02:45:17.534Z,14.28
2023-10-21T02:47:46.294Z,14.24
2023-10-21T02:50:15.049Z,14.25
2023-10-21T02:52:44.960Z,14.28
2023-10-21T02:55:13.665Z,14.23
2023-10-21T02:57:42.697Z,14.12
2023-10-21T03:00:17.014Z,14.07
2023-10-21T03:02:46.317Z,14.06
2023-10-21T03:05:15.384Z,14.04
2023-10-21T03:07:44.744Z,14.02
2023-10-21T03:10:13.835Z,13.99
2023-10-21T03:12:44.798Z,13.92
2023-10-21T03:15:13.918Z,13.83
2023-10-21T03:17:42.854Z,13.80
2023-10-21T03:20:12.659Z,13.76
2023-10-21T03:22:41.317Z,13.77
2023-10-21T03:25:10.178Z,13.80
2023-10-21T03:27:38.940Z,13.83
2023-10-21T03:30:09.021Z,13.85
2023-10-21T03:32:37.843Z,13.87
2023-10-21T03:35:07.671Z,13.87
2023-10-21T03:37:36.412Z,13.87
2023-10-21T03:40:07.334Z,13.85
2023-10-21T03:42:36.110Z,13.82
2023-10-21T03:45:09.107Z,13.82
2023-10-21T03:47:37.998Z,13.80
2023-10-21T03:50:08.187Z,13.79
2023-10-21T03:52:37.372Z,13.78
2023-10-21T03:55:06.297Z,13.78
2023-10-21T03:57:34.984Z,13.77
2023-10-21T04:00:06.644Z,13.76
2023-10-21T04:02:40.608Z,13.71
2023-10-21T04:05:09.564Z,13.66
2023-10-21T04:07:38.224Z,13.63
2023-10-21T04:10:08.283Z,13.61
2023-10-21T04:12:38.138Z,13.61
2023-10-21T04:15:10.513Z,13.59
2023-10-21T04:17:40.721Z,13.57
2023-10-21T04:20:12.683Z,13.52
2023-10-21T04:22:41.439Z,13.45
2023-10-21T04:25:14.336Z,13.42
2023-10-21T04:27:43.148Z,13.43
2023-10-21T04:30:13.504Z,13.42
2023-10-21T04:32:42.626Z,13.41
2023-10-21T04:35:11.187Z,13.37
2023-10-21T04:37:39.839Z,13.34
2023-10-21T04:40:09.931Z,13.32
2023-10-21T04:42:40.145Z,13.32
2023-10-21T04:45:10.813Z,13.28
2023-10-21T04:47:39.780Z,13.29
2023-10-21T04:50:08.901Z,13.29
2023-10-21T04:52:38.613Z,13.30
2023-10-21T04:55:08.008Z,13.31
2023-10-21T04:57:36.860Z,13.32
2023-10-21T05:00:11.150Z,13.29
2023-10-21T05:02:40.309Z,13.31
2023-10-21T05:05:10.364Z,13.27
2023-10-21T05:07:40.071Z,13.29
2023-10-21T05:10:09.845Z,13.36
2023-10-21T05:12:38.691Z,13.38
2023-10-21T05:15:07.948Z,13.36
2023-10-21T05:17:36.746Z,13.35
2023-10-21T05:20:06.702Z,13.38
2023-10-21T05:22:36.122Z,13.46
2023-10-21T05:25:06.592Z,13.50
2023-10-21T05:27:36.374Z,13.55
2023-10-21T05:30:06.055Z,13.61
2023-10-21T05:32:35.754Z,13.63
2023-10-21T05:35:08.558Z,13.70
2023-10-21T05:37:37.423Z,13.73
2023-10-21T05:40:07.554Z,13.76
2023-10-21T05:42:36.307Z,13.81
2023-10-21T05:45:05.397Z,13.77
2023-10-21T05:47:34.171Z,13.86
2023-10-21T05:50:03.807Z,13.97
2023-10-21T05:52:32.520Z,14.02
2023-10-21T05:55:03.120Z,14.07
2023-10-21T05:57:32.019Z,14.11
2023-10-21T06:00:01.066Z,14.21
2023-10-21T06:02:29.846Z,14.37
2023-10-21T06:04:58.287Z,14.41
2023-10-21T06:07:27.046Z,14.50
2023-10-21T06:09:56.394Z,14.63
2023-10-21T06:12:25.730Z,14.72
2023-10-21T06:14:54.966Z,14.84
2023-10-21T06:17:23.613Z,14.91
2023-10-21T06:19:53.773Z,14.95
2023-10-21T06:22:23.602Z,15.00
2023-10-21T06:24:52.180Z,15.03
2023-10-21T06:27:20.829Z,15.11
2023-10-21T06:29:49.780Z,15.13
2023-10-21T06:32:18.915Z,15.19
2023-10-21T06:34:48.008Z,15.33
2023-10-21T06:37:16.526Z,15.43
2023-10-21T06:39:48.123Z,15.56
2023-10-21T06:42:18.183Z,15.71
2023-10-21T06:44:46.951Z,15.84
2023-10-21T06:47:15.542Z,15.94
2023-10-21T06:49:46.430Z,16.05
2023-10-21T06:52:15.040Z,16.15
2023-10-21T06:54:43.774Z,16.24
2023-10-21T06:57:12.300Z,16.38
2023-10-21T06:59:41.346Z,16.53
2023-10-21T07:02:10.080Z,16.69
2023-10-21T07:04:39.207Z,16.85
2023-10-21T07:07:08.042Z,16.98
2023-10-21T07:09:36.877Z,17.08
2023-10-21T07:12:06.417Z,17.21
2023-10-21T07:14:35.531Z,17.34
2023-10-21T07:17:04.673Z,17.43
2023-10-21T07:19:33.370Z,17.56
2023-10-21T07:22:02.018Z,17.73
2023-10-21T07:24:30.731Z,17.88
2023-10-21T07:26:59.942Z,18.07
2023-10-21T07:29:28.766Z,18.25
2023-10-21T07:31:57.497Z,18.43
2023-10-21T07:34:26.724Z,18.64
2023-10-21T07:36:55.414Z,18.80
2023-10-21T07:39:23.936Z,19.01
2023-10-21T07:41:52.883Z,19.20
2023-10-21T07:44:23.841Z,19.39
2023-10-21T07:46:53.053Z,19.59
2023-10-21T07:49:21.851Z,19.72
2023-10-21T07:51:50.510Z,19.92
2023-10-21T07:54:19.363Z,20.11
2023-10-21T07:56:50.764Z,20.30
2023-10-21T07:59:20.824Z,20.49
2023-10-21T08:01:51.298Z,20.67
2023-10-21T08:04:20.197Z,20.87
2023-10-21T08:06:49.070Z,21.05
2023-10-21T08:09:19.854Z,21.20
2023-10-21T08:11:48.602Z,21.36
2023-10-21T08:14:19.232Z,21.49
2023-10-21T08:16:48.404Z,21.62
2023-10-21T08:19:18.212Z,21.74
2023-10-21T08:21:46.884Z,21.85
2023-10-21T08:24:15.596Z,21.98
2023-10-21T08:26:44.480Z,22.05
2023-10-21T08:29:13.117Z,22.15
2023-10-21T08:31:42.332Z,22.21
2023-10-21T08:34:14.412Z,22.33
2023-10-21T08:36:43.943Z,22.46
2023-10-21T08:39:13.545Z,22.60
2023-10-21T08:41:42.625Z,22.74
2023-10-21T08:44:13.595Z,22.87
2023-10-21T08:46:43.029Z,23.02
2023-10-21T08:49:13.822Z,23.12
2023-10-21T08:51:42.893Z,23.25
2023-10-21T08:54:13.930Z,23.38
2023-10-21T08:56:42.839Z,23.53
2023-10-21T08:59:11.777Z,23.70
2023-10-21T09:01:43.238Z,23.86
2023-10-21T09:04:17.732Z,23.98
2023-10-21T09:07:00.819Z,24.09
2023-10-21T09:09:31.077Z,24.26
2023-10-21T09:12:12.645Z,24.33
2023-10-21T09:15:00.334Z,24.40
2023-10-21T09:17:39.762Z,24.50
2023-10-21T09:20:17.497Z,24.58
2023-10-21T09:22:54.150Z,24.66
2023-10-21T09:25:24.432Z,24.73
2023-10-21T09:27:55.429Z,24.80
2023-10-21T09:30:27.136Z,24.86
2023-10-21T09:33:07.138Z,24.97
2023-10-21T09:35:39.073Z,25.07
2023-10-21T09:38:19.641Z,25.17
2023-10-21T09:40:50.037Z,25.32
2023-10-21T09:43:19.276Z,25.45
2023-10-21T09:45:49.964Z,25.57
2023-10-21T09:48:19.214Z,25.63
2023-10-21T09:50:59.290Z,25.70
2023-10-21T09:53:39.858Z,25.78
2023-10-21T09:56:12.801Z,25.86
2023-10-21T09:58:42.513Z,25.94
2023-10-21T10:01:14.735Z,25.95
2023-10-21T10:03:45.471Z,25.95
2023-10-21T10:06:14.182Z,25.96
2023-10-21T10:08:42.952Z,25.97
2023-10-21T10:11:16.782Z,26.00
2023-10-21T10:13:49.401Z,26.04
2023-10-21T10:16:26.879Z,26.09
2023-10-21T10:18:58.488Z,26.14
2023-10-21T10:21:29.093Z,26.21
2023-10-21T10:23:59.952Z,26.28
2023-10-21T10:26:39.765Z,26.36
2023-10-21T10:29:27.696Z,26.45
2023-10-21T10:32:16.630Z,26.55
2023-10-21T10:34:53.957Z,26.65
2023-10-21T10:37:39.060Z,26.74
2023-10-21T10:40:20.829Z,26.82
2023-10-21T10:42:52.317Z,26.88
2023-10-21T10:45:21.014Z,26.96
2023-10-21T10:48:00.455Z,27.04
2023-10-21T10:50:30.908Z,27.14
2023-10-21T10:53:01.371Z,27.21
2023-10-21T10:55:30.043Z,27.31
2023-10-21T10:58:00.340Z,27.37
2023-10-21T11:00:28.974Z,27.45
2023-10-21T11:02:57.701Z,27.52
2023-10-21T11:05:26.509Z,27.58
2023-10-21T11:07:55.265Z,27.67
2023-10-21T11:10:26.140Z,27.79
2023-10-21T11:12:54.839Z,27.88
2023-10-21T11:15:24.706Z,27.97
2023-10-21T11:17:54.476Z,28.09
2023-10-21T11:20:23.345Z,28.24
2023-10-21T11:22:54.912Z,28.39
2023-10-21T11:25:25.479Z,28.59
2023-10-21T11:27:54.075Z,28.77
2023-10-21T11:30:23.635Z,28.91
2023-10-21T11:32:54.412Z,29.04
2023-10-21T11:35:25.145Z,29.18
2023-10-21T11:37:56.808Z,29.27
2023-10-21T11:40:25.505Z,29.32
2023-10-21T11:43:07.778Z,29.37
2023-10-21T11:45:36.603Z,29.43
2023-10-21T11:48:12.204Z,29.47
2023-10-21T11:50:45.712Z,29.55
2023-10-21T11:53:14.926Z,29.60
2023-10-21T11:55:52.749Z,29.60
2023-10-21T11:58:43.369Z,29.59
2023-10-21T12:01:32.076Z,29.68
2023-10-21T12:04:59.887Z,29.76
2023-10-21T12:07:54.249Z,29.88
2023-10-21T12:10:25.965Z,30.00
2023-10-21T12:13:00.711Z,30.10
2023-10-21T12:16:10.016Z,30.22
2023-10-21T12:18:56.996Z,30.32
2023-10-21T12:21:43.985Z,30.35
2023-10-21T12:24:18.209Z,30.32
2023-10-21T12:27:05.589Z,30.26
2023-10-21T12:29:49.642Z,30.24
2023-10-21T12:32:36.728Z,30.31
2023-10-21T12:35:27.209Z,30.35
2023-10-21T12:38:07.560Z,30.37
2023-10-21T12:40:39.828Z,30.38
2023-10-21T12:43:17.761Z,30.40
2023-10-21T12:45:48.403Z,30.44
2023-10-21T12:48:19.558Z,30.49
2023-10-21T12:50:53.005Z,30.51
2023-10-21T12:53:21.947Z,30.53
2023-10-21T12:55:51.742Z,30.57
2023-10-21T12:58:20.415Z,30.61
2023-10-21T13:00:49.262Z,30.62
2023-10-21T13:03:19.021Z,30.55
2023-10-21T13:05:47.918Z,30.45
2023-10-21T13:08:16.557Z,30.35
2023-10-21T13:10:45.445Z,30.30
2023-10-21T13:13:17.351Z,30.26
2023-10-21T13:15:46.224Z,30.22
2023-10-21T13:18:15.139Z,30.19
2023-10-21T13:20:44.493Z,30.17
2023-10-21T13:23:13.277Z,30.11
2023-10-21T13:25:41.991Z,30.06
2023-10-21T13:28:11.714Z,29.98
2023-10-21T13:30:40.425Z,29.93
2023-10-21T13:33:11.237Z,29.87
2023-10-21T13:35:40.156Z,29.81
2023-10-21T13:38:10.444Z,29.74
2023-10-21T13:40:40.995Z,29.66
2023-10-21T13:43:11.327Z,29.63
2023-10-21T13:45:39.954Z,29.59
2023-10-21T13:48:12.826Z,29.55
2023-10-21T13:50:42.392Z,29.49
2023-10-21T13:53:15.899Z,29.39
2023-10-21T13:55:48.276Z,29.27
2023-10-21T13:58:17.456Z,29.14
2023-10-21T14:00:46.240Z,28.99
2023-10-21T14:03:17.893Z,28.87
2023-10-21T14:05:52.806Z,28.72
2023-10-21T14:08:26.949Z,28.56
2023-10-21T14:11:10.352Z,28.41
2023-10-21T14:13:39.522Z,28.30
2023-10-21T14:16:13.272Z,28.18
2023-10-21T14:18:46.236Z,28.02
2023-10-21T14:21:15.186Z,27.91
2023-10-21T14:23:44.041Z,27.82
2023-10-21T14:26:17.286Z,27.70
2023-10-21T14:28:46.645Z,27.61
2023-10-21T14:34:54.572Z,27.40
2023-10-21T14:37:25.432Z,27.27
2023-10-21T14:39:54.929Z,27.15
2023-10-21T14:42:24.096Z,27.06
2023-10-21T14:44:53.737Z,26.97
2023-10-21T14:47:27.497Z,26.85
2023-10-21T14:49:59.808Z,26.74
2023-10-21T14:52:30.647Z,26.63
2023-10-21T14:54:59.809Z,26.51
2023-10-21T14:57:29.869Z,26.39
2023-10-21T14:59:59.811Z,26.26
2023-10-21T15:02:32.493Z,26.13
2023-10-21T15:05:01.718Z,26.00
2023-10-21T15:07:31.108Z,25.88
2023-10-21T15:10:01.617Z,25.78
2023-10-21T15:16:05.993Z,25.59
2023-10-21T15:18:34.823Z,25.44
2023-10-21T15:21:08.706Z,25.30
2023-10-21T15:23:39.092Z,25.16
2023-10-21T15:26:18.083Z,25.04
2023-10-21T15:28:46.962Z,24.91
2023-10-21T15:31:16.748Z,24.77
2023-10-21T15:33:45.496Z,24.62
2023-10-21T15:36:17.452Z,24.51
2023-10-21T15:38:46.683Z,24.39
2023-10-21T15:41:19.676Z,24.28
2023-10-21T15:43:49.097Z,24.16
2023-10-21T15:46:18.452Z,24.03
2023-10-21T15:48:47.465Z,23.93
2023-10-21T15:51:16.249Z,23.80
2023-10-21T15:53:48.527Z,23.69
2023-10-21T15:56:17.082Z,23.54
2023-10-21T15:58:46.067Z,23.40
2023-10-21T16:01:15.153Z,23.30
2023-10-21T16:03:45.447Z,23.17
2023-10-21T16:06:15.203Z,23.05
2023-10-21T16:08:44.916Z,22.92
2023-10-21T16:11:13.657Z,22.76
2023-10-21T16:13:42.259Z,22.59
2023-10-21T16:16:11.094Z,22.48
2023-10-21T16:18:40.236Z,22.36
2023-10-21T16:21:09.007Z,22.24
2023-10-21T16:23:39.760Z,22.12
2023-10-21T16:26:11.272Z,22.02
2023-10-21T16:28:40.243Z,21.91
2023-10-21T16:31:09.213Z,21.82
2023-10-21T16:33:39.176Z,21.75
2023-10-21T16:36:11.608Z,21.68
2023-10-21T16:38:41.092Z,21.59
2023-10-21T16:41:11.472Z,21.52
2023-10-21T16:43:41.881Z,21.44
2023-10-21T16:46:13.642Z,21.36
2023-10-21T16:48:42.738Z,21.29
2023-10-21T16:51:12.337Z,21.22
2023-10-21T16:53:41.117Z,21.17
2023-10-21T16:56:12.431Z,21.13
2023-10-21T16:58:41.293Z,21.10
2023-10-21T17:01:10.100Z,21.07
2023-10-21T17:03:40.445Z,21.03
2023-10-21T17:06:09.529Z,20.97
2023-10-21T17:08:38.225Z,20.94
2023-10-21T17:11:07.003Z,20.92
2023-10-21T17:13:35.758Z,20.86
2023-10-21T17:16:06.842Z,20.80
2023-10-21T17:18:36.494Z,20.70
2023-10-21T17:21:20.383Z,20.58
2023-10-21T17:23:50.758Z,20.37
2023-10-21T17:26:19.972Z,20.33
2023-10-21T17:28:49.145Z,20.26
2023-10-21T17:31:19.910Z,20.17
2023-10-21T17:33:51.172Z,20.13
2023-10-21T17:36:21.310Z,20.08
2023-10-21T17:38:50.080Z,20.03
2023-10-21T17:41:18.858Z,19.97
2023-10-21T17:43:50.123Z,19.90
2023-10-21T17:46:19.177Z,19.87
2023-10-21T17:48:47.917Z,19.84
2023-10-21T17:51:19.399Z,19.80
2023-10-21T17:53:48.622Z,19.77
2023-10-21T17:56:17.183Z,19.75
2023-10-21T17:58:45.741Z,19.69
2023-10-21T18:01:14.695Z,19.65
2023-10-21T18:03:43.525Z,19.57
2023-10-21T18:06:15.009Z,19.53
2023-10-21T18:08:53.925Z,19.47
2023-10-21T18:11:25.244Z,19.40
2023-10-21T18:13:55.166Z,19.34
2023-10-21T18:16:23.700Z,19.27
2023-10-21T18:18:53.419Z,19.23
2023-10-21T18:21:21.983Z,19.17
2023-10-21T18:23:53.678Z,19.10
2023-10-21T18:26:22.243Z,19.03
2023-10-21T18:28:50.930Z,18.94
2023-10-21T18:31:22.706Z,18.86
2023-10-21T18:33:57.296Z,18.80
2023-10-21T18:36:28.488Z,18.75
2023-10-21T18:38:57.152Z,18.70
2023-10-21T18:41:28.050Z,18.64
2023-10-21T18:43:57.147Z,18.57
2023-10-21T18:46:31.084Z,18.55
2023-10-21T18:49:00.989Z,18.52
2023-10-21T18:51:33.369Z,18.46
2023-10-21T18:54:07.562Z,18.39
2023-10-21T18:56:36.236Z,18.25
2023-10-21T18:59:06.656Z,18.15
2023-10-21T19:01:37.864Z,18.08
2023-10-21T19:04:08.596Z,18.01
2023-10-21T19:06:41.391Z,17.91
2023-10-21T19:09:10.137Z,17.75
2023-10-21T19:11:42.240Z,17.71
2023-10-21T19:14:13.851Z,17.58
2023-10-21T19:16:42.604Z,17.56
2023-10-21T19:19:11.513Z,17.58
2023-10-21T19:21:41.531Z,17.57
2023-10-21T19:24:10.397Z,17.56
2023-10-21T19:26:39.211Z,17.57
2023-10-21T19:29:09.450Z,17.58
2023-10-21T19:31:38.887Z,17.55
2023-10-21T19:34:07.633Z,17.50
2023-10-21T19:36:36.430Z,17.45
2023-10-21T19:39:06.008Z,17.48
2023-10-21T19:41:34.532Z,17.44
2023-10-21T19:44:14.839Z,17.43
2023-10-21T19:46:52.327Z,17.43
2023-10-21T19:49:23.669Z,17.44
2023-10-21T19:51:52.414Z,17.44
2023-10-21T19:54:21.112Z,17.37
2023-10-21T19:56:50.130Z,17.30
2023-10-21T19:59:18.855Z,17.25
2023-10-21T20:01:50.190Z,17.25
2023-10-21T20:04:18.910Z,17.23
2023-10-21T20:06:47.769Z,17.20
2023-10-21T20:09:16.578Z,17.14
2023-10-21T20:11:48.194Z,17.10
2023-10-21T20:14:16.886Z,17.07
2023-10-21T20:16:47.358Z,17.05
2023-10-21T20:19:18.244Z,17.02
2023-10-21T20:21:47.337Z,17.01
2023-10-21T20:24:16.478Z,16.97
2023-10-21T20:26:45.205Z,16.95
2023-10-21T20:29:14.545Z,16.96
2023-10-21T20:31:43.371Z,16.95
2023-10-21T20:34:12.508Z,16.91
2023-10-21T20:36:41.286Z,16.86
2023-10-21T20:39:10.499Z,16.79
2023-10-21T20:41:44.148Z,16.72
2023-10-21T20:44:13.138Z,16.66
2023-10-21T20:46:41.823Z,16.62
2023-10-21T20:49:10.551Z,16.62
2023-10-21T20:53:50.424Z,16.64
2023-10-21T20:56:21.272Z,16.58
2023-10-21T20:58:50.846Z,16.53
2023-10-21T21:01:30.893Z,16.46
2023-10-21T21:04:07.871Z,16.38
2023-10-21T21:06:38.146Z,16.33
2023-10-21T21:09:09.316Z,16.24
2023-10-21T21:11:38.032Z,16.12
2023-10-21T21:14:06.725Z,16.05
2023-10-21T21:16:36.361Z,16.04
2023-10-21T21:19:06.231Z,16.02
2023-10-21T21:21:35.322Z,15.96
2023-10-21T21:24:06.781Z,15.94
2023-10-21T21:26:35.927Z,15.94
2023-10-21T21:29:05.640Z,15.92
2023-10-21T21:31:34.535Z,15.89
2023-10-21T21:34:03.204Z,15.86
2023-10-21T21:36:55.362Z,15.84
2023-10-21T21:39:24.963Z,15.84
2023-10-21T21:41:53.717Z,15.82
2023-10-21T21:44:22.958Z,15.79
2023-10-21T21:46:51.566Z,15.75
2023-10-21T21:49:20.346Z,15.71
2023-10-21T21:51:48.854Z,15.68
2023-10-21T21:54:17.606Z,15.63
2023-10-21T21:56:46.341Z,15.60
2023-10-21T21:59:15.065Z,15.53
2023-10-21T22:01:43.914Z,15.48
2023-10-21T22:04:12.767Z,15.43
2023-10-21T22:06:43.314Z,15.40
2023-10-21T22:09:15.290Z,15.39
2023-10-21T22:11:45.419Z,15.36
2023-10-21T22:14:15.456Z,15.36
2023-10-21T22:16:43.897Z,15.32
2023-10-21T22:19:15.848Z,15.26
2023-10-21T22:21:48.983Z,15.23
2023-10-21T22:24:17.944Z,15.20
2023-10-21T22:26:54.351Z,15.19
2023-10-21T22:29:26.954Z,15.20
2023-10-21T22:31:57.673Z,15.21
2023-10-21T22:34:26.381Z,15.23
2023-10-21T22:36:55.091Z,15.22
2023-10-21T22:39:24.483Z,15.19
2023-10-21T22:41:54.577Z,15.15
2023-10-21T22:44:23.152Z,15.11
2023-10-21T22:46:51.924Z,15.08
2023-10-21T22:49:20.656Z,15.02
2023-10-21T22:51:49.322Z,15.02
2023-10-21T22:54:18.428Z,14.95
2023-10-21T22:56:47.774Z,14.92
2023-10-21T22:59:16.924Z,14.92
2023-10-21T23:01:45.544Z,14.86
2023-10-21T23:04:14.108Z,14.68
2023-10-21T23:06:45.981Z,14.55
2023-10-21T23:09:29.673Z,14.53
2023-10-21T23:11:58.510Z,14.44
2023-10-21T23:14:28.586Z,14.36
2023-10-21T23:16:57.065Z,14.36
2023-10-21T23:19:25.684Z,14.32
2023-10-21T23:21:54.285Z,14.32
2023-10-21T23:24:23.027Z,14.31
2023-10-21T23:26:51.722Z,14.33
2023-10-21T23:29:20.595Z,14.34
2023-10-21T23:31:49.529Z,14.36
2023-10-21T23:34:18.349Z,14.39
2023-10-21T23:36:48.493Z,14.40
2023-10-21T23:39:21.613Z,14.42
2023-10-21T23:41:51.473Z,14.44
2023-10-21T23:44:20.222Z,14.44
2023-10-21T23:46:48.806Z,14.38
2023-10-21T23:49:17.421Z,14.35
2023-10-21T23:51:46.024Z,14.29
2023-10-21T23:54:14.722Z,14.22
2023-10-21T23:56:43.257Z,14.10
2023-10-21T23:59:11.945Z,14.06
